createdAt,value
2019-06-26T00:03:52.335Z,11.53
2019-06-26T00:08:53.872Z,11.55
2019-06-26T00:13:55.467Z,11.97
2019-06-26T00:18:57.135Z,11.00
2019-06-26T00:23:58.804Z,11.75
2019-06-26T00:29:00.336Z,12.18
2019-06-26T00:34:01.998Z,12.30
2019-06-26T00:39:06.314Z,12.33
2019-06-26T00:44:07.993Z,11.75
2019-06-26T00:49:09.702Z,11.63
2019-06-26T00:54:11.347Z,12.73
2019-06-26T00:59:13.155Z,12.85
2019-06-26T01:04:16.619Z,12.45
2019-06-26T01:09:18.425Z,12.47
2019-06-26T01:14:20.110Z,12.85
2019-06-26T01:19:21.856Z,13.25
2019-06-26T01:24:23.455Z,13.75
2019-06-26T01:29:24.936Z,14.18
2019-06-26T01:34:26.398Z,13.90
2019-06-26T01:39:28.267Z,14.68
2019-06-26T01:44:29.817Z,14.50
2019-06-26T01:49:31.894Z,14.43
2019-06-26T01:54:33.446Z,14.87
2019-06-26T01:59:35.004Z,14.75
2019-06-26T02:04:36.733Z,14.75
2019-06-26T02:09:38.315Z,15.72
2019-06-26T02:14:40.102Z,15.55
2019-06-26T02:19:41.773Z,15.60
2019-06-26T02:24:43.409Z,15.32
2019-06-26T02:29:44.912Z,15.90
2019-06-26T02:34:46.523Z,15.72
2019-06-26T02:39:48.086Z,15.20
2019-06-26T02:44:53.785Z,16.00
2019-06-26T02:49:53.891Z,15.68
2019-06-26T02:54:55.326Z,16.85
2019-06-26T02:59:56.971Z,16.10
2019-06-26T03:04:58.725Z,16.02
2019-06-26T03:10:00.320Z,16.48
2019-06-26T03:15:09.331Z,16.82
2019-06-26T03:20:10.461Z,17.48
2019-06-26T03:25:12.183Z,17.02
2019-06-26T03:30:14.134Z,17.65
2019-06-26T03:35:15.838Z,17.15
2019-06-26T03:40:17.390Z,17.67
2019-06-26T03:45:25.625Z,18.12
2019-06-26T03:50:22.744Z,18.32
2019-06-26T03:55:25.429Z,18.70
2019-06-26T04:00:36.819Z,18.60
2019-06-26T04:05:38.627Z,19.12
2019-06-26T04:10:43.274Z,18.00
2019-06-26T04:15:44.083Z,18.07
2019-06-26T04:20:45.705Z,17.00
2019-06-26T04:25:47.269Z,17.25
2019-06-26T04:30:48.894Z,17.87
2019-06-26T04:35:50.577Z,17.02
2019-06-26T04:40:52.137Z,18.15
2019-06-26T04:45:58.246Z,17.80
2019-06-26T04:50:57.059Z,16.93
2019-06-26T04:55:58.532Z,16.10
2019-06-26T05:01:00.060Z,16.73
2019-06-26T05:06:01.737Z,21.33
2019-06-26T05:11:03.767Z,16.67
2019-06-26T05:16:14.900Z,16.75
2019-06-26T05:21:09.268Z,18.40
2019-06-26T05:26:11.021Z,16.77
2019-06-26T05:31:12.558Z,16.42
2019-06-26T05:36:14.304Z,17.27
2019-06-26T05:41:15.922Z,17.50
2019-06-26T05:46:30.662Z,16.85
2019-06-26T05:51:21.060Z,17.27
2019-06-26T05:56:22.769Z,17.67
2019-06-26T06:01:24.461Z,16.05
2019-06-26T06:06:40.724Z,17.32
2019-06-26T06:11:29.954Z,15.93
2019-06-26T06:16:46.129Z,16.42
2019-06-26T06:21:35.082Z,15.88
2019-06-26T06:26:36.628Z,17.37
2019-06-26T06:31:38.308Z,15.05
2019-06-26T06:36:39.839Z,13.43
2019-06-26T06:41:43.454Z,13.88
2019-06-26T06:46:44.994Z,13.78
2019-06-26T06:51:46.646Z,14.10
2019-06-26T06:56:48.283Z,14.00
2019-06-26T07:01:49.932Z,13.72
2019-06-26T07:06:51.594Z,13.40
2019-06-26T07:11:53.239Z,13.08
2019-06-26T07:16:55.031Z,13.35
2019-06-26T07:21:56.592Z,13.60
2019-06-26T07:26:58.158Z,13.18
2019-06-26T07:31:59.707Z,12.30
2019-06-26T07:37:01.230Z,13.30
2019-06-26T07:42:02.879Z,12.18
2019-06-26T07:47:12.719Z,12.47
2019-06-26T07:52:07.965Z,12.73
2019-06-26T07:57:09.526Z,11.22
2019-06-26T08:02:11.086Z,11.30
2019-06-26T08:07:13.293Z,11.38
2019-06-26T08:12:14.845Z,10.20
2019-06-26T08:17:16.462Z,10.15
2019-06-26T08:22:18.241Z,9.40
2019-06-26T08:27:19.803Z,9.13
2019-06-26T08:32:21.426Z,9.20
2019-06-26T08:37:23.080Z,10.53
2019-06-26T08:42:24.652Z,10.60
2019-06-26T08:47:26.205Z,9.55
2019-06-26T08:52:27.673Z,9.48
2019-06-26T08:57:29.333Z,9.40
2019-06-26T09:02:30.953Z,10.50
2019-06-26T09:07:32.622Z,11.25
2019-06-26T09:12:34.208Z,9.95
2019-06-26T09:17:35.829Z,9.90
2019-06-26T09:22:37.928Z,10.85
2019-06-26T09:27:39.582Z,9.73
2019-06-26T09:32:41.156Z,9.93
2019-06-26T09:37:42.798Z,9.13
2019-06-26T09:42:44.423Z,10.35
2019-06-26T09:47:46.319Z,8.90
2019-06-26T09:52:47.892Z,9.58
2019-06-26T09:57:49.559Z,9.78
2019-06-26T10:02:51.102Z,9.35
2019-06-26T10:07:52.698Z,8.90
2019-06-26T10:12:54.403Z,9.65
2019-06-26T10:17:56.076Z,9.13
2019-06-26T10:22:57.864Z,8.23
2019-06-26T10:27:59.549Z,9.20
2019-06-26T10:33:01.200Z,8.83
2019-06-26T10:38:02.969Z,7.55
2019-06-26T10:43:04.815Z,7.90
2019-06-26T10:48:07.974Z,7.92
2019-06-26T10:53:09.515Z,7.40
2019-06-26T10:58:11.168Z,7.50
2019-06-26T11:03:12.931Z,7.55
2019-06-26T11:08:14.606Z,8.03
2019-06-26T11:13:16.188Z,7.42
2019-06-26T11:18:17.816Z,9.50
2019-06-26T11:23:19.471Z,8.75
2019-06-26T11:28:21.220Z,9.30
2019-06-26T11:33:22.788Z,8.05
2019-06-26T11:38:24.337Z,8.88
2019-06-26T11:43:25.923Z,8.78
2019-06-26T11:48:27.625Z,8.85
2019-06-26T11:53:29.150Z,9.15
2019-06-26T11:58:30.832Z,9.18
2019-06-26T12:03:32.475Z,8.55
2019-06-26T12:08:34.129Z,8.58
2019-06-26T12:13:36.077Z,9.03
2019-06-26T12:18:37.772Z,9.05
2019-06-26T12:23:39.357Z,8.95
2019-06-26T12:28:40.990Z,10.20
2019-06-26T12:33:42.645Z,9.30
2019-06-26T12:38:44.160Z,9.53
2019-06-26T12:43:46.313Z,9.05
2019-06-26T12:48:47.925Z,8.85
2019-06-26T12:53:49.458Z,9.73
2019-06-26T12:58:51.132Z,8.90
2019-06-26T13:03:52.600Z,9.45
2019-06-26T13:08:54.262Z,9.63
2019-06-26T13:14:02.668Z,9.90
2019-06-26T13:19:00.287Z,9.50
2019-06-26T13:24:01.807Z,9.73
2019-06-26T13:29:03.427Z,9.68
2019-06-26T13:34:05.212Z,9.35
2019-06-26T13:39:06.845Z,9.70
2019-06-26T13:44:08.528Z,9.90
2019-06-26T13:49:10.398Z,10.50
2019-06-26T13:54:11.975Z,9.75
2019-06-26T13:59:13.404Z,10.58
2019-06-26T14:04:15.393Z,10.15
2019-06-26T14:09:17.108Z,9.53
2019-06-26T14:14:20.551Z,9.68
2019-06-26T14:19:25.919Z,9.40
2019-06-26T14:24:25.927Z,9.43
2019-06-26T14:29:27.483Z,9.60
2019-06-26T14:34:28.990Z,8.65
2019-06-26T14:39:30.610Z,7.37
2019-06-26T14:44:32.116Z,7.55
2019-06-26T14:49:33.827Z,7.22
2019-06-26T14:54:35.358Z,7.22
2019-06-26T14:59:36.937Z,7.85
2019-06-26T15:04:38.620Z,8.40
2019-06-26T15:09:40.329Z,8.30
2019-06-26T15:14:41.764Z,7.65
2019-06-26T15:19:43.340Z,7.95
2019-06-26T15:24:45.518Z,7.65
2019-06-26T15:29:47.068Z,6.97
2019-06-26T15:34:48.723Z,7.45
2019-06-26T15:39:50.288Z,6.65
2019-06-26T15:44:51.965Z,6.67
2019-06-26T15:49:54.118Z,6.70
2019-06-26T15:54:55.664Z,6.65
2019-06-26T15:59:57.310Z,6.40
2019-06-26T16:04:58.866Z,7.03
2019-06-26T16:10:00.540Z,7.15
2019-06-26T16:15:04.680Z,6.78
2019-06-26T16:20:06.734Z,7.10
2019-06-26T16:25:08.573Z,7.75
2019-06-26T16:30:10.359Z,7.55
2019-06-26T16:35:12.566Z,8.05
2019-06-26T16:40:14.362Z,8.63
2019-06-26T16:45:16.946Z,8.30
2019-06-26T16:50:19.234Z,8.53
2019-06-26T16:55:20.769Z,8.98
2019-06-26T17:00:22.509Z,8.38
2019-06-26T17:05:24.140Z,8.30
2019-06-26T17:10:25.816Z,8.55
2019-06-26T17:15:27.493Z,8.55
2019-06-26T17:20:29.113Z,8.03
2019-06-26T17:25:30.782Z,8.15
2019-06-26T17:30:32.459Z,8.43
2019-06-26T17:35:34.110Z,9.28
2019-06-26T17:40:35.733Z,8.38
2019-06-26T17:45:37.390Z,8.93
2019-06-26T17:50:38.983Z,9.40
2019-06-26T17:55:40.731Z,10.03
2019-06-26T18:00:42.378Z,9.63
2019-06-26T18:05:44.029Z,9.50
2019-06-26T18:10:45.720Z,9.90
2019-06-26T18:15:47.290Z,9.55
2019-06-26T18:20:50.187Z,9.73
2019-06-26T18:25:54.433Z,9.68
2019-06-26T18:30:55.214Z,10.88
2019-06-26T18:35:56.783Z,10.68
2019-06-26T18:40:58.407Z,10.35
2019-06-26T18:45:59.989Z,15.00
2019-06-26T18:51:01.659Z,11.60
2019-06-26T18:56:03.483Z,11.30
2019-06-26T19:01:05.136Z,11.22
2019-06-26T19:06:06.827Z,12.10
2019-06-26T19:11:08.502Z,12.47
2019-06-26T19:16:10.078Z,12.00
2019-06-26T19:21:11.619Z,12.03
2019-06-26T19:26:13.312Z,10.00
2019-06-26T19:31:15.055Z,11.95
2019-06-26T19:36:16.731Z,10.03
2019-06-26T19:41:18.522Z,11.05
2019-06-26T19:46:20.585Z,10.55
2019-06-26T19:51:22.265Z,9.70
2019-06-26T19:56:23.927Z,9.10
2019-06-26T20:01:25.733Z,9.20
2019-06-26T20:06:27.394Z,9.53
2019-06-26T20:11:29.020Z,9.85
2019-06-26T20:16:30.686Z,10.05
2019-06-26T20:21:32.688Z,11.05
2019-06-26T20:26:34.360Z,10.13
2019-06-26T20:31:35.938Z,10.25
2019-06-26T20:36:37.521Z,10.82
2019-06-26T20:41:39.145Z,11.18
2019-06-26T20:46:40.885Z,11.60
2019-06-26T20:51:42.507Z,11.88
2019-06-26T20:56:44.593Z,11.80
2019-06-26T21:01:46.066Z,11.93
2019-06-26T21:06:48.014Z,11.50
2019-06-26T21:11:49.773Z,12.68
2019-06-26T21:16:51.385Z,13.00
2019-06-26T21:21:52.974Z,13.88
2019-06-26T21:26:54.409Z,14.05
2019-06-26T21:31:55.966Z,14.10
2019-06-26T21:36:57.669Z,14.63
2019-06-26T21:41:59.357Z,15.58
2019-06-26T21:47:01.131Z,15.08
2019-06-26T21:52:02.848Z,16.00
2019-06-26T21:57:04.529Z,15.25
2019-06-26T22:02:06.207Z,15.32
2019-06-26T22:07:08.434Z,15.03
2019-06-26T22:12:10.167Z,15.10
2019-06-26T22:17:12.265Z,15.20
2019-06-26T22:22:13.937Z,15.15
2019-06-26T22:27:15.616Z,15.80
2019-06-26T22:32:17.766Z,15.35
2019-06-26T22:37:21.882Z,15.50
2019-06-26T22:42:23.642Z,16.77
2019-06-26T22:47:25.337Z,16.60
2019-06-26T22:52:27.034Z,16.62
2019-06-26T22:57:28.737Z,17.60
2019-06-26T23:02:30.352Z,17.55
2019-06-26T23:07:31.913Z,16.48
2019-06-26T23:12:33.591Z,15.85
2019-06-26T23:17:35.245Z,15.13
2019-06-26T23:22:36.978Z,16.05
2019-06-26T23:27:38.652Z,15.40
2019-06-26T23:32:40.384Z,14.30
2019-06-26T23:37:42.028Z,12.45
2019-06-26T23:42:43.595Z,12.70
2019-06-26T23:47:45.135Z,11.50
2019-06-26T23:52:46.810Z,11.00
2019-06-26T23:57:58.633Z,10.85
